createdAt,value
2019-03-29T00:01:45.069Z,5.81
2019-03-29T00:04:16.450Z,5.72
2019-03-29T00:06:47.810Z,5.67
2019-03-29T00:09:19.362Z,5.68
2019-03-29T00:11:51.746Z,5.68
2019-03-29T00:14:23.657Z,5.66
2019-03-29T00:16:55.127Z,5.59
2019-03-29T00:19:27.808Z,5.54
2019-03-29T00:22:01.307Z,5.53
2019-03-29T00:24:32.748Z,5.47
2019-03-29T00:27:04.858Z,5.49
2019-03-29T00:29:36.344Z,5.48
2019-03-29T00:32:07.812Z,5.53
2019-03-29T00:34:42.067Z,5.41
2019-03-29T00:37:13.811Z,5.43
2019-03-29T00:39:47.980Z,5.43
2019-03-29T00:42:19.474Z,5.37
2019-03-29T00:44:50.855Z,5.45
2019-03-29T00:47:22.353Z,5.39
2019-03-29T00:49:53.836Z,5.39
2019-03-29T00:52:25.188Z,5.25
2019-03-29T00:54:56.690Z,5.20
2019-03-29T00:57:28.002Z,5.21
2019-03-29T01:00:01.042Z,5.20
2019-03-29T01:02:32.372Z,5.23
2019-03-29T01:05:03.872Z,5.20
2019-03-29T01:07:35.233Z,5.12
2019-03-29T01:10:07.852Z,5.18
2019-03-29T01:12:39.700Z,5.15
2019-03-29T01:15:11.406Z,5.10
2019-03-29T01:17:42.894Z,5.11
2019-03-29T01:20:15.227Z,5.06
2019-03-29T01:22:46.604Z,4.99
2019-03-29T01:25:18.019Z,4.95
2019-03-29T01:27:49.439Z,4.96
2019-03-29T01:30:21.079Z,5.01
2019-03-29T01:32:52.486Z,5.00
2019-03-29T01:35:23.923Z,4.94
2019-03-29T01:37:55.276Z,4.91
2019-03-29T01:40:31.239Z,4.78
2019-03-29T01:43:02.611Z,4.80
2019-03-29T01:45:34.119Z,4.83
2019-03-29T01:48:06.493Z,4.84
2019-03-29T01:50:37.877Z,4.74
2019-03-29T01:53:09.954Z,4.70
2019-03-29T01:55:42.382Z,4.72
2019-03-29T01:58:13.819Z,4.64
2019-03-29T02:00:45.222Z,4.64
2019-03-29T02:03:16.587Z,4.64
2019-03-29T02:05:48.016Z,4.62
2019-03-29T02:08:19.390Z,4.61
2019-03-29T02:10:52.474Z,4.47
2019-03-29T02:13:25.983Z,4.45
2019-03-29T02:15:57.889Z,4.45
2019-03-29T02:18:30.474Z,4.43
2019-03-29T02:21:01.890Z,4.49
2019-03-29T02:23:33.240Z,4.50
2019-03-29T02:26:04.759Z,4.38
2019-03-29T02:28:36.161Z,4.32
2019-03-29T02:31:09.022Z,4.36
2019-03-29T02:33:42.522Z,4.44
2019-03-29T02:36:13.947Z,4.45
2019-03-29T02:38:55.127Z,4.40
2019-03-29T02:41:19.581Z,4.32
2019-03-29T02:43:51.151Z,4.27
2019-03-29T02:46:25.650Z,4.27
2019-03-29T02:48:56.747Z,4.24
2019-03-29T02:51:28.151Z,4.32
2019-03-29T02:53:59.539Z,4.29
2019-03-29T02:56:30.926Z,4.31
2019-03-29T02:59:02.273Z,4.24
2019-03-29T03:01:33.716Z,4.26
2019-03-29T03:04:05.092Z,4.15
2019-03-29T03:06:36.559Z,4.13
2019-03-29T03:09:14.180Z,4.08
2019-03-29T03:11:42.834Z,4.10
2019-03-29T03:14:14.257Z,4.13
2019-03-29T03:16:45.650Z,4.04
2019-03-29T03:19:17.197Z,4.04
2019-03-29T03:21:48.685Z,4.00
2019-03-29T03:24:20.166Z,4.05
2019-03-29T03:26:51.609Z,4.11
2019-03-29T03:29:23.705Z,4.06
2019-03-29T03:31:55.091Z,4.03
2019-03-29T03:34:26.466Z,3.91
2019-03-29T03:36:57.869Z,3.90
2019-03-29T03:39:32.620Z,3.93
2019-03-29T03:42:02.374Z,3.93
2019-03-29T03:44:33.831Z,3.95
2019-03-29T03:47:05.177Z,3.93
2019-03-29T03:49:36.577Z,3.88
2019-03-29T03:52:07.967Z,3.90
2019-03-29T03:54:40.182Z,3.87
2019-03-29T03:57:14.110Z,3.91
2019-03-29T03:59:46.353Z,4.00
2019-03-29T04:02:20.118Z,4.02
2019-03-29T04:04:51.510Z,4.03
2019-03-29T04:07:22.889Z,4.10
2019-03-29T04:09:56.576Z,4.08
2019-03-29T04:12:28.069Z,4.06
2019-03-29T04:15:01.394Z,4.04
2019-03-29T04:17:32.902Z,4.05
2019-03-29T04:20:04.307Z,4.03
2019-03-29T04:22:35.729Z,4.00
2019-03-29T04:25:07.707Z,4.00
2019-03-29T04:27:39.144Z,4.03
2019-03-29T04:30:11.332Z,4.01
2019-03-29T04:32:42.677Z,4.03
2019-03-29T04:35:16.450Z,4.00
2019-03-29T04:37:47.864Z,3.99
2019-03-29T04:40:19.216Z,3.97
2019-03-29T04:42:50.600Z,3.93
2019-03-29T04:45:27.184Z,3.91
2019-03-29T04:47:58.613Z,3.90
2019-03-29T04:50:30.077Z,3.89
2019-03-29T04:53:01.515Z,3.88
2019-03-29T04:55:32.896Z,3.87
2019-03-29T04:58:04.353Z,3.84
2019-03-29T05:00:35.658Z,3.80
2019-03-29T05:03:07.106Z,3.80
2019-03-29T05:05:38.510Z,3.81
2019-03-29T05:08:09.976Z,3.79
2019-03-29T05:10:41.346Z,3.81
2019-03-29T05:13:12.750Z,3.78
2019-03-29T05:15:44.135Z,3.79
2019-03-29T05:18:15.560Z,3.76
2019-03-29T05:20:46.957Z,3.73
2019-03-29T05:23:18.364Z,3.72
2019-03-29T05:25:49.727Z,3.75
2019-03-29T05:28:21.155Z,3.74
2019-03-29T05:30:52.513Z,3.71
2019-03-29T05:33:23.956Z,3.73
2019-03-29T05:35:55.305Z,3.69
2019-03-29T05:38:28.916Z,3.70
2019-03-29T05:41:00.340Z,3.69
2019-03-29T05:43:31.770Z,3.73
2019-03-29T05:46:03.313Z,3.73
2019-03-29T05:48:34.833Z,3.75
2019-03-29T05:51:06.396Z,3.76
2019-03-29T05:53:37.821Z,3.75
2019-03-29T05:56:09.215Z,3.76
2019-03-29T05:58:40.665Z,3.77
2019-03-29T06:01:15.024Z,3.80
2019-03-29T06:03:49.165Z,3.83
2019-03-29T06:06:20.507Z,3.83
2019-03-29T06:08:51.950Z,3.85
2019-03-29T06:11:23.320Z,3.89
2019-03-29T06:13:57.202Z,3.89
2019-03-29T06:16:38.986Z,3.92
2019-03-29T06:19:01.786Z,3.92
2019-03-29T06:21:33.207Z,3.94
2019-03-29T06:24:07.703Z,3.99
2019-03-29T06:26:39.055Z,4.01
2019-03-29T06:29:10.540Z,4.03
2019-03-29T06:31:41.943Z,4.04
2019-03-29T06:34:13.393Z,4.07
2019-03-29T06:36:45.576Z,4.09
2019-03-29T06:39:21.109Z,4.15
2019-03-29T06:41:50.851Z,4.18
2019-03-29T06:44:22.256Z,4.23
2019-03-29T06:46:53.594Z,4.26
2019-03-29T06:49:25.009Z,4.32
2019-03-29T06:51:56.381Z,4.36
2019-03-29T06:54:27.841Z,4.40
2019-03-29T06:56:59.255Z,4.44
2019-03-29T06:59:32.469Z,4.48
2019-03-29T07:02:06.036Z,4.51
2019-03-29T07:04:37.576Z,4.56
2019-03-29T07:07:08.921Z,4.63
2019-03-29T07:09:40.412Z,4.68
2019-03-29T07:12:11.795Z,4.74
2019-03-29T07:14:43.205Z,4.80
2019-03-29T07:17:16.292Z,4.88
2019-03-29T07:19:47.753Z,4.94
2019-03-29T07:22:19.140Z,5.02
2019-03-29T07:24:50.562Z,5.10
2019-03-29T07:27:21.901Z,5.16
2019-03-29T07:29:53.397Z,5.22
2019-03-29T07:32:24.917Z,5.31
2019-03-29T07:34:56.335Z,5.40
2019-03-29T07:37:27.734Z,5.46
2019-03-29T07:39:59.150Z,5.55
2019-03-29T07:42:30.563Z,5.64
2019-03-29T07:45:01.999Z,5.71
2019-03-29T07:47:35.971Z,5.78
2019-03-29T07:50:07.945Z,5.86
2019-03-29T07:52:39.337Z,5.95
2019-03-29T07:55:10.872Z,6.05
2019-03-29T07:57:42.354Z,6.10
2019-03-29T08:00:14.268Z,6.18
2019-03-29T08:02:45.661Z,6.26
2019-03-29T08:05:18.084Z,6.35
2019-03-29T08:07:49.685Z,6.52
2019-03-29T08:10:26.140Z,6.84
2019-03-29T08:12:54.291Z,7.03
2019-03-29T08:15:25.671Z,7.09
2019-03-29T08:17:57.156Z,7.26
2019-03-29T08:20:44.765Z,7.41
2019-03-29T08:23:01.652Z,7.62
2019-03-29T08:25:33.121Z,7.67
2019-03-29T08:28:05.753Z,7.74
2019-03-29T08:30:38.680Z,7.81
2019-03-29T08:33:10.054Z,7.90
2019-03-29T08:35:41.430Z,8.02
2019-03-29T08:38:12.834Z,8.14
2019-03-29T08:40:45.369Z,8.16
2019-03-29T08:43:16.792Z,8.25
2019-03-29T08:45:48.177Z,8.42
2019-03-29T08:48:19.537Z,8.57
2019-03-29T08:50:50.978Z,8.67
2019-03-29T08:53:22.369Z,8.70
2019-03-29T08:55:53.760Z,8.84
2019-03-29T08:58:25.336Z,8.95
2019-03-29T09:00:56.753Z,9.13
2019-03-29T09:03:28.163Z,9.22
2019-03-29T09:05:59.659Z,9.25
2019-03-29T09:08:31.051Z,9.33
2019-03-29T09:11:02.428Z,9.44
2019-03-29T09:13:33.777Z,9.48
2019-03-29T09:16:08.264Z,9.54
2019-03-29T09:18:39.653Z,9.67
2019-03-29T09:21:11.064Z,9.76
2019-03-29T09:23:42.418Z,9.87
2019-03-29T09:26:13.868Z,9.95
2019-03-29T09:28:45.270Z,9.99
2019-03-29T09:31:16.681Z,10.01
2019-03-29T09:33:48.082Z,10.08
2019-03-29T09:36:19.785Z,10.29
2019-03-29T09:38:51.189Z,10.35
2019-03-29T09:41:22.670Z,10.41
2019-03-29T09:43:54.742Z,10.53
2019-03-29T09:46:26.190Z,10.56
2019-03-29T09:48:57.637Z,10.58
2019-03-29T09:51:29.021Z,10.70
2019-03-29T09:54:00.363Z,10.79
2019-03-29T09:56:38.710Z,10.83
2019-03-29T09:59:04.882Z,10.93
2019-03-29T10:01:36.405Z,10.95
2019-03-29T10:04:07.872Z,11.02
2019-03-29T10:06:39.334Z,11.08
2019-03-29T10:09:10.769Z,11.17
2019-03-29T10:11:42.195Z,11.23
2019-03-29T10:14:13.548Z,11.31
2019-03-29T10:16:44.969Z,11.37
2019-03-29T10:19:16.340Z,11.40
2019-03-29T10:21:47.767Z,11.53
2019-03-29T10:24:19.185Z,11.53
2019-03-29T10:26:50.595Z,11.59
2019-03-29T10:29:21.972Z,11.65
2019-03-29T10:31:53.412Z,11.69
2019-03-29T10:34:24.833Z,11.69
2019-03-29T10:36:56.241Z,11.70
2019-03-29T10:39:30.544Z,11.80
2019-03-29T10:42:01.994Z,11.90
2019-03-29T10:44:33.426Z,12.02
2019-03-29T10:47:06.473Z,12.13
2019-03-29T10:49:37.871Z,12.25
2019-03-29T10:52:12.353Z,12.34
2019-03-29T10:54:43.741Z,12.38
2019-03-29T10:57:15.195Z,12.43
2019-03-29T10:59:46.554Z,12.42
2019-03-29T11:02:19.716Z,12.43
2019-03-29T11:04:51.206Z,12.37
2019-03-29T11:07:22.616Z,12.39
2019-03-29T11:09:54.021Z,12.42
2019-03-29T11:12:25.436Z,12.37
2019-03-29T11:14:56.810Z,12.37
2019-03-29T11:17:28.285Z,12.40
2019-03-29T11:19:59.660Z,12.40
2019-03-29T11:22:31.078Z,12.42
2019-03-29T11:25:02.513Z,12.43
2019-03-29T11:27:33.924Z,12.46
2019-03-29T11:30:06.156Z,12.45
2019-03-29T11:32:37.651Z,12.53
2019-03-29T11:35:09.138Z,12.57
2019-03-29T11:37:42.337Z,12.63
2019-03-29T11:40:13.825Z,12.65
2019-03-29T11:42:45.254Z,12.68
2019-03-29T11:45:16.752Z,12.74
2019-03-29T11:47:48.140Z,12.78
2019-03-29T11:50:19.779Z,12.89
2019-03-29T11:52:51.263Z,13.01
2019-03-29T11:55:22.665Z,13.07
2019-03-29T11:57:55.992Z,13.15
2019-03-29T12:00:38.037Z,13.17
2019-03-29T12:03:12.495Z,13.23
2019-03-29T12:05:43.903Z,13.23
2019-03-29T12:08:15.324Z,13.26
2019-03-29T12:10:46.714Z,13.33
2019-03-29T12:13:18.129Z,13.42
2019-03-29T12:15:50.188Z,13.52
2019-03-29T12:18:21.721Z,13.63
2019-03-29T12:20:54.470Z,13.63
2019-03-29T12:23:25.968Z,13.57
2019-03-29T12:25:57.311Z,13.59
2019-03-29T12:28:28.831Z,13.58
2019-03-29T12:31:02.564Z,13.60
2019-03-29T12:33:34.007Z,13.60
2019-03-29T12:36:05.390Z,13.60
2019-03-29T12:38:36.829Z,13.61
2019-03-29T12:41:09.723Z,13.64
2019-03-29T12:43:54.618Z,13.65
2019-03-29T12:46:14.211Z,13.75
2019-03-29T12:48:46.586Z,13.87
2019-03-29T12:51:20.537Z,13.94
2019-03-29T12:53:52.009Z,14.04
2019-03-29T12:56:23.367Z,14.12
2019-03-29T12:58:54.790Z,14.26
2019-03-29T13:01:38.469Z,14.30
2019-03-29T13:03:59.341Z,14.30
2019-03-29T13:06:30.772Z,14.22
2019-03-29T13:09:02.196Z,14.19
2019-03-29T13:11:33.578Z,14.22
2019-03-29T13:14:10.551Z,14.26
2019-03-29T13:16:39.131Z,14.35
2019-03-29T13:19:10.603Z,14.34
2019-03-29T13:21:41.977Z,14.40
2019-03-29T13:24:15.990Z,14.38
2019-03-29T13:26:54.325Z,14.40
2019-03-29T13:29:25.355Z,14.42
2019-03-29T13:31:56.769Z,14.51
2019-03-29T13:34:28.175Z,14.50
2019-03-29T13:36:59.620Z,14.50
2019-03-29T13:39:30.962Z,14.47
2019-03-29T13:42:04.584Z,14.47
2019-03-29T13:44:36.025Z,14.54
2019-03-29T13:47:07.397Z,14.57
2019-03-29T13:49:38.903Z,14.59
2019-03-29T13:52:10.307Z,14.63
2019-03-29T13:54:41.757Z,14.68
2019-03-29T13:57:13.176Z,14.79
2019-03-29T13:59:44.645Z,15.11
2019-03-29T14:02:16.011Z,15.66
2019-03-29T14:04:48.562Z,16.17
2019-03-29T14:07:20.038Z,16.66
2019-03-29T14:09:52.467Z,16.90
2019-03-29T14:12:23.862Z,16.99
2019-03-29T14:14:55.288Z,17.18
2019-03-29T14:17:26.676Z,17.05
2019-03-29T14:19:58.165Z,16.96
2019-03-29T14:22:29.547Z,16.91
2019-03-29T14:25:01.003Z,16.84
2019-03-29T14:27:32.365Z,16.75
2019-03-29T14:30:05.124Z,16.67
2019-03-29T14:32:37.017Z,16.68
2019-03-29T14:35:09.255Z,16.74
2019-03-29T14:37:40.721Z,16.80
2019-03-29T14:40:12.625Z,16.82
2019-03-29T14:42:43.966Z,16.83
2019-03-29T14:45:15.479Z,16.88
2019-03-29T14:47:46.885Z,16.77
2019-03-29T14:50:18.679Z,16.77
2019-03-29T14:52:51.251Z,16.66
2019-03-29T14:55:22.995Z,16.60
2019-03-29T14:57:54.388Z,16.62
2019-03-29T15:00:43.892Z,16.64
2019-03-29T15:03:15.442Z,16.60
2019-03-29T15:05:49.702Z,16.64
2019-03-29T15:08:24.223Z,16.67
2019-03-29T15:10:55.656Z,16.70
2019-03-29T15:13:27.085Z,16.72
2019-03-29T15:15:58.444Z,16.75
2019-03-29T15:18:29.847Z,16.78
2019-03-29T15:21:01.297Z,16.79
2019-03-29T15:23:32.648Z,16.79
2019-03-29T15:26:04.396Z,16.81
2019-03-29T15:28:37.500Z,16.86
2019-03-29T15:31:09.140Z,16.86
2019-03-29T15:33:40.665Z,16.89
2019-03-29T15:36:12.079Z,16.90
2019-03-29T15:38:43.460Z,16.95
2019-03-29T15:41:16.151Z,16.96
2019-03-29T15:43:47.534Z,16.98
2019-03-29T15:46:18.975Z,17.01
2019-03-29T15:48:50.355Z,17.05
2019-03-29T15:51:24.767Z,17.04
2019-03-29T15:53:57.622Z,17.07
2019-03-29T15:56:29.083Z,17.09
2019-03-29T15:59:00.490Z,17.09
2019-03-29T16:01:31.945Z,17.12
2019-03-29T16:04:03.311Z,17.14
2019-03-29T16:06:34.757Z,17.14
2019-03-29T16:09:07.418Z,17.18
2019-03-29T16:11:43.881Z,17.16
2019-03-29T16:14:15.333Z,17.10
2019-03-29T16:16:46.779Z,17.06
2019-03-29T16:19:18.260Z,16.97
2019-03-29T16:21:49.697Z,16.91
2019-03-29T16:24:21.198Z,16.86
2019-03-29T16:26:52.610Z,16.80
2019-03-29T16:29:24.016Z,16.68
2019-03-29T16:31:55.458Z,16.70
2019-03-29T16:34:26.895Z,16.64
2019-03-29T16:36:58.214Z,16.63
2019-03-29T16:39:30.773Z,16.56
2019-03-29T16:42:03.381Z,16.52
2019-03-29T16:44:41.536Z,16.45
2019-03-29T16:47:12.922Z,16.42
2019-03-29T16:49:44.420Z,16.36
2019-03-29T16:52:15.869Z,16.24
2019-03-29T16:54:47.270Z,16.18
2019-03-29T16:57:18.707Z,16.08
2019-03-29T16:59:50.171Z,16.01
2019-03-29T17:02:21.559Z,15.98
2019-03-29T17:04:52.955Z,15.95
2019-03-29T17:07:24.347Z,15.89
2019-03-29T17:09:55.811Z,15.83
2019-03-29T17:12:27.257Z,15.77
2019-03-29T17:14:58.689Z,15.72
2019-03-29T17:17:30.115Z,15.60
2019-03-29T17:20:01.554Z,15.50
2019-03-29T17:22:32.972Z,15.42
2019-03-29T17:25:04.413Z,15.35
2019-03-29T17:27:35.808Z,15.22
2019-03-29T17:30:10.504Z,15.13
2019-03-29T17:32:42.888Z,15.01
2019-03-29T17:35:14.321Z,14.90
2019-03-29T17:37:45.710Z,14.81
2019-03-29T17:40:17.238Z,14.79
2019-03-29T17:42:48.656Z,14.69
2019-03-29T17:45:22.872Z,14.58
2019-03-29T17:47:54.306Z,14.44
2019-03-29T17:50:25.896Z,14.41
2019-03-29T17:52:57.475Z,14.30
2019-03-29T17:55:31.860Z,14.17
2019-03-29T17:58:02.395Z,14.12
2019-03-29T18:00:33.835Z,13.99
2019-03-29T18:03:06.307Z,13.88
2019-03-29T18:05:40.431Z,13.83
2019-03-29T18:08:25.011Z,13.74
2019-03-29T18:10:56.468Z,13.61
2019-03-29T18:13:27.841Z,13.51
2019-03-29T18:15:59.290Z,13.39
2019-03-29T18:18:30.833Z,13.32
2019-03-29T18:21:02.294Z,13.24
2019-03-29T18:23:33.723Z,13.15
2019-03-29T18:26:09.432Z,13.07
2019-03-29T18:28:40.105Z,13.01
2019-03-29T18:31:11.635Z,12.89
2019-03-29T18:33:43.040Z,12.87
2019-03-29T18:36:15.639Z,12.85
2019-03-29T18:38:49.190Z,12.75
2019-03-29T18:41:20.713Z,12.65
2019-03-29T18:43:55.019Z,12.59
2019-03-29T18:46:28.911Z,12.50
2019-03-29T18:49:00.330Z,12.43
2019-03-29T18:51:31.796Z,12.39
2019-03-29T18:54:04.603Z,12.36
2019-03-29T18:56:36.039Z,12.28
2019-03-29T18:59:07.516Z,12.15
2019-03-29T19:01:39.872Z,12.08
2019-03-29T19:04:11.327Z,12.04
2019-03-29T19:06:45.040Z,11.96
2019-03-29T19:09:16.472Z,11.87
2019-03-29T19:11:48.159Z,11.75
2019-03-29T19:14:19.533Z,11.63
2019-03-29T19:16:58.688Z,11.59
2019-03-29T19:19:27.240Z,11.52
2019-03-29T19:21:58.693Z,11.44
2019-03-29T19:24:30.108Z,11.40
2019-03-29T19:27:01.601Z,11.31
2019-03-29T19:29:35.355Z,11.27
2019-03-29T19:32:06.830Z,11.13
2019-03-29T19:34:38.258Z,11.12
2019-03-29T19:37:09.753Z,11.07
2019-03-29T19:39:41.194Z,11.04
2019-03-29T19:42:16.781Z,10.90
2019-03-29T19:44:47.243Z,10.85
2019-03-29T19:47:18.979Z,10.77
2019-03-29T19:49:50.464Z,10.74
2019-03-29T19:52:25.081Z,10.62
2019-03-29T19:55:01.270Z,10.53
2019-03-29T19:57:32.877Z,10.44
2019-03-29T20:00:06.246Z,10.36
2019-03-29T20:02:37.935Z,10.33
2019-03-29T20:05:24.444Z,10.22
2019-03-29T20:07:58.515Z,10.18
2019-03-29T20:10:30.086Z,10.08
2019-03-29T20:13:01.721Z,10.05
2019-03-29T20:15:33.068Z,9.98
2019-03-29T20:18:04.530Z,9.89
2019-03-29T20:20:36.067Z,9.84
2019-03-29T20:23:11.473Z,9.83
2019-03-29T20:25:42.909Z,9.80
2019-03-29T20:28:14.335Z,9.80
2019-03-29T20:30:46.198Z,9.69
2019-03-29T20:33:19.139Z,9.67
2019-03-29T20:35:51.802Z,9.63
2019-03-29T20:38:23.254Z,9.53
2019-03-29T20:40:54.590Z,9.50
2019-03-29T20:43:26.023Z,9.49
2019-03-29T20:45:57.454Z,9.38
2019-03-29T20:48:28.867Z,9.30
2019-03-29T20:51:00.231Z,9.27
2019-03-29T20:53:32.237Z,9.19
2019-03-29T20:56:06.438Z,9.13
2019-03-29T20:58:36.982Z,9.14
2019-03-29T21:01:08.375Z,9.12
2019-03-29T21:03:39.829Z,9.11
2019-03-29T21:06:11.206Z,9.02
2019-03-29T21:08:42.684Z,8.98
2019-03-29T21:11:23.156Z,8.93
2019-03-29T21:13:58.804Z,8.85
2019-03-29T21:16:30.261Z,8.80
2019-03-29T21:19:03.128Z,8.72
2019-03-29T21:21:34.535Z,8.72
2019-03-29T21:24:06.974Z,8.70
2019-03-29T21:26:38.329Z,8.65
2019-03-29T21:29:09.769Z,8.59
2019-03-29T21:31:41.162Z,8.54
2019-03-29T21:34:12.718Z,8.51
2019-03-29T21:36:44.106Z,8.52
2019-03-29T21:39:15.498Z,8.49
2019-03-29T21:41:47.891Z,8.45
2019-03-29T21:44:20.526Z,8.38
2019-03-29T21:46:51.959Z,8.20
2019-03-29T21:49:23.360Z,8.23
2019-03-29T21:51:54.766Z,8.26
2019-03-29T21:54:26.217Z,8.24
2019-03-29T21:57:03.640Z,8.15
2019-03-29T21:59:37.073Z,8.14
2019-03-29T22:02:08.265Z,8.04
2019-03-29T22:04:39.719Z,8.01
2019-03-29T22:07:11.096Z,7.98
2019-03-29T22:09:44.885Z,7.83
2019-03-29T22:12:16.283Z,7.89
2019-03-29T22:14:47.794Z,7.87
2019-03-29T22:17:19.180Z,7.85
2019-03-29T22:19:50.603Z,7.79
2019-03-29T22:22:22.019Z,7.76
2019-03-29T22:24:53.448Z,7.67
2019-03-29T22:27:24.831Z,7.69
2019-03-29T22:29:56.294Z,7.60
2019-03-29T22:32:27.678Z,7.62
2019-03-29T22:34:59.147Z,7.59
2019-03-29T22:37:30.495Z,7.60
2019-03-29T22:40:01.932Z,7.50
2019-03-29T22:42:36.616Z,7.49
2019-03-29T22:45:10.145Z,7.52
2019-03-29T22:47:41.507Z,7.48
2019-03-29T22:50:15.533Z,7.45
2019-03-29T22:52:47.211Z,7.42
2019-03-29T22:55:18.644Z,7.39
2019-03-29T22:57:50.121Z,7.38
2019-03-29T23:00:35.476Z,7.42
2019-03-29T23:03:07.625Z,7.24
2019-03-29T23:05:40.199Z,7.26
2019-03-29T23:08:11.513Z,7.19
2019-03-29T23:10:42.957Z,7.12
2019-03-29T23:13:14.344Z,7.15
2019-03-29T23:15:45.770Z,7.10
2019-03-29T23:18:17.547Z,7.09
2019-03-29T23:20:48.996Z,7.06
2019-03-29T23:23:20.347Z,7.02
2019-03-29T23:25:51.853Z,7.01
2019-03-29T23:28:26.093Z,7.02
2019-03-29T23:30:57.487Z,6.92
2019-03-29T23:33:30.368Z,6.81
2019-03-29T23:36:01.832Z,6.78
2019-03-29T23:38:33.211Z,6.79
2019-03-29T23:41:05.748Z,6.72
2019-03-29T23:43:37.463Z,6.69
2019-03-29T23:46:08.899Z,6.62
2019-03-29T23:48:40.279Z,6.57
2019-03-29T23:51:11.781Z,6.53
2019-03-29T23:53:43.163Z,6.55
2019-03-29T23:56:14.565Z,6.41
2019-03-29T23:58:48.273Z,6.32
